Time;durP1;ratioP1;P1;durP2;ratioP2;P2;SDS_P1;SDS_P2;PMS_P1;PMS_P2;Temp;Humidity;BMP_temperature;BMP_pressure;BME280_temperature;BME280_humidity;BME280_pressure;Samples;Min_cycle;Max_cycle;Signal;HPM_P1;HPM_P2
2022/02/14 00:08:06;;;;;;;24.72;11.80;;;;;;;1.00;86.46;100341.31;3462258;82;99361;-88
2022/02/14 00:25:36;;;;;;;24.05;10.70;;;;;;;1.22;85.49;100333.05;3465217;83;98818;-90
2022/02/14 01:20:34;;;;;;;21.52;9.35;;;;;;;1.41;83.06;100304.52;3456182;83;98767;-90
2022/02/14 01:38:20;;;;;;;17.73;8.73;;;;;;;1.32;83.09;100286.66;3456091;83;99011;-91
2022/02/14 01:43:21;;;;;;;20.17;7.72;;;;;;;1.27;83.12;100290.88;3474191;83;98726;-92
2022/02/14 02:00:51;;;;;;;19.23;8.13;;;;;;;1.22;83.02;100262.00;3463683;83;98805;-90
2022/02/14 02:19:05;;;;;;;17.80;8.90;;;;;;;1.17;82.66;100231.56;3468879;83;99062;-93
2022/02/14 02:24:11;;;;;;;17.75;8.75;;;;;;;1.14;82.66;100226.77;3470339;83;97514;-90
2022/02/14 02:29:14;;;;;;;19.77;8.33;;;;;;;1.10;82.92;100233.97;3435688;83;98984;-91
2022/02/14 02:34:14;;;;;;;22.75;8.30;;;;;;;1.07;82.86;100227.27;3477064;83;98652;-92
2022/02/14 02:39:15;;;;;;;20.37;9.17;;;;;;;1.07;82.52;100231.88;3496580;83;98940;-92
2022/02/14 03:03:22;;;;;;;18.80;8.10;;;;;;;1.00;82.56;100201.77;3467393;83;99312;-90
2022/02/14 03:08:23;;;;;;;17.67;8.35;;;;;;;0.97;82.43;100201.84;3474566;82;99057;-92
2022/02/14 03:13:24;;;;;;;17.07;7.77;;;;;;;0.95;82.27;100195.16;3473753;83;98699;-91
2022/02/14 03:25:01;;;;;;;17.70;7.80;;;;;;;0.93;82.15;100179.78;3467272;83;33315;-92
2022/02/14 03:30:03;;;;;;;18.50;7.97;;;;;;;0.92;82.12;100170.03;3467972;83;98900;-91
2022/02/14 03:35:05;;;;;;;16.12;8.08;;;;;;;0.90;81.97;100166.32;3466336;83;98545;-90
2022/02/14 03:46:21;;;;;;;17.57;7.72;;;;;;;0.86;81.95;100151.81;3472120;83;98775;-91
2022/02/14 04:03:52;;;;;;;20.85;9.25;;;;;;;0.81;81.80;100146.55;3466994;83;98744;-93
2022/02/14 04:21:22;;;;;;;17.73;6.90;;;;;;;0.83;80.90;100129.41;3460892;83;98188;-89
2022/02/14 04:26:23;;;;;;;15.90;7.40;;;;;;;0.88;80.74;100118.41;3450782;83;98757;-89
2022/02/14 05:20:59;;;;;;;18.92;8.30;;;;;;;0.97;79.61;100102.95;3462137;83;98413;-93
2022/02/14 05:26:00;;;;;;;16.40;7.95;;;;;;;0.97;79.79;100108.92;3493017;83;98570;-92
2022/02/14 05:43:37;;;;;;;17.17;7.47;;;;;;;0.94;79.83;100108.23;3456393;83;98533;-91
2022/02/14 05:54:55;;;;;;;18.85;8.80;;;;;;;0.89;79.92;100105.10;3512426;82;98492;-89
2022/02/14 06:18:12;;;;;;;21.05;8.48;;;;;;;0.84;80.36;100108.00;3512579;82;98756;-93
2022/02/14 06:23:13;;;;;;;21.43;9.00;;;;;;;0.85;80.44;100107.42;3517458;81;99157;-91
2022/02/14 06:28:14;;;;;;;23.63;9.27;;;;;;;0.83;80.49;100103.68;3511320;81;98594;-93
2022/02/14 06:33:14;;;;;;;20.97;9.08;;;;;;;0.86;80.40;100108.47;3516143;81;28411;-91
2022/02/14 06:38:15;;;;;;;21.13;9.50;;;;;;;0.89;80.57;100111.09;3514236;82;98948;-91
2022/02/14 06:43:17;;;;;;;22.60;10.18;;;;;;;0.93;80.53;100106.64;3512588;82;98915;-92
2022/02/14 06:48:18;;;;;;;22.17;10.10;;;;;;;0.98;80.50;100111.31;3513644;81;98551;-91
2022/02/14 06:53:19;;;;;;;23.57;9.90;;;;;;;1.03;80.44;100107.09;3518637;82;98872;-90
2022/02/14 07:42:02;;;;;;;22.40;10.48;;;;;;;1.72;79.75;100083.25;3503201;82;98777;-90
2022/02/14 08:04:38;;;;;;;21.05;9.98;;;;;;;2.13;78.85;100061.63;3517075;82;99122;-91
2022/02/14 08:09:39;;;;;;;22.50;11.63;;;;;;;2.25;78.68;100061.13;3516323;82;98297;-91
2022/02/14 08:14:42;;;;;;;23.23;12.00;;;;;;;2.39;77.47;100052.16;3528894;82;32051;-93
2022/02/14 12:03:30;;;;;;;17.80;8.95;;;;;;;8.98;53.30;99918.30;3537219;81;98393;-86
2022/02/14 12:09:01;;;;;;;16.37;8.23;;;;;;;8.99;53.73;99912.44;3530667;82;98502;-87
2022/02/14 12:14:04;;;;;;;18.05;8.40;;;;;;;9.03;52.89;99912.47;3505897;82;98512;-86
2022/02/14 12:24:26;;;;;;;16.50;8.48;;;;;;;9.03;54.23;99885.82;3524528;82;98997;-86
2022/02/14 12:29:33;;;;;;;17.10;8.45;;;;;;;9.07;54.66;99874.30;3514181;82;99016;-86
2022/02/14 12:34:37;;;;;;;15.38;8.75;;;;;;;9.13;53.50;99877.46;3523156;82;25990;-86
2022/02/14 12:39:49;;;;;;;18.23;9.80;;;;;;;9.09;52.44;99856.84;3501116;82;98672;-85
2022/02/14 12:44:52;;;;;;;19.20;10.00;;;;;;;9.13;53.75;99857.67;3480883;83;97648;-84
2022/02/14 12:50:08;;;;;;;17.62;8.25;;;;;;;9.15;53.45;99843.54;3505505;82;99001;-89
2022/02/14 12:55:10;;;;;;;;;;;;;;;9.17;51.72;99848.86;3481699;82;98484;-85
2022/02/14 13:00:38;;;;;;;20.60;9.88;;;;;;;9.19;53.74;99830.06;3478936;82;85069;-87
2022/02/14 13:05:37;;;;;;;16.37;8.37;;;;;;;9.25;55.40;99826.36;3500941;82;98893;-86
2022/02/14 13:10:53;;;;;;;17.60;9.70;;;;;;;9.27;55.69;99820.69;3491469;82;98294;-86
2022/02/14 13:15:59;;;;;;;17.40;9.10;;;;;;;9.27;55.62;99815.20;3480946;83;98742;-88
2022/02/14 13:20:59;;;;;;;22.52;10.20;;;;;;;9.26;55.96;99822.47;3516875;81;98657;-88
2022/02/14 13:26:01;;;;;;;20.20;8.13;;;;;;;9.23;56.80;99813.04;3530395;81;98831;-89
2022/02/14 13:31:02;;;;;;;24.33;10.67;;;;;;;9.22;57.34;99813.41;3521387;82;98430;-84
2022/02/14 13:36:06;;;;;;;14.30;6.90;;;;;;;9.14;57.10;99813.15;3529753;82;98725;-87
2022/02/14 13:41:09;;;;;;;16.65;8.73;;;;;;;9.10;56.79;99813.73;3523761;81;98948;-85
2022/02/14 13:46:12;;;;;;;17.45;7.85;;;;;;;9.04;57.31;99809.17;3532174;81;33583;-85
2022/02/14 13:51:26;;;;;;;17.73;8.40;;;;;;;9.02;57.47;99803.86;3521505;82;98451;-85
2022/02/14 13:56:29;;;;;;;17.85;8.63;;;;;;;8.95;58.14;99815.56;3529760;82;98302;-84
2022/02/14 14:01:34;;;;;;;17.20;9.10;;;;;;;8.96;56.82;99806.18;3522722;82;98848;-84
2022/02/14 14:06:35;;;;;;;19.02;8.25;;;;;;;8.97;57.05;99802.27;3533155;82;98858;-85
2022/02/14 14:11:36;;;;;;;23.80;8.67;;;;;;;8.91;57.83;99802.98;3479372;83;98934;-84
2022/02/14 14:16:39;;;;;;;15.67;8.13;;;;;;;8.87;56.59;99801.59;3487777;83;31639;-85
2022/02/14 14:21:40;;;;;;;17.60;8.70;;;;;;;8.84;57.58;99803.72;3539583;82;98170;-86
2022/02/14 14:26:40;;;;;;;18.80;8.43;;;;;;;8.80;56.36;99808.98;3600571;80;98674;-85
2022/02/14 14:31:43;;;;;;;24.70;10.60;;;;;;;8.81;56.95;99809.17;3541342;82;98790;-87
2022/02/14 14:36:44;;;;;;;18.45;8.28;;;;;;;8.77;56.71;99798.78;3537408;82;98734;-84
2022/02/14 14:41:45;;;;;;;21.73;12.13;;;;;;;8.76;57.13;99804.03;3511876;82;98915;-84
2022/02/14 14:46:47;;;;;;;16.93;8.87;;;;;;;8.69;57.24;99798.50;3544032;82;98384;-85
2022/02/14 14:51:49;;;;;;;17.40;8.83;;;;;;;8.63;57.50;99799.45;3549477;82;98724;-85
2022/02/14 14:56:49;;;;;;;18.67;10.23;;;;;;;8.59;57.30;99804.11;3532575;82;98896;-84
2022/02/14 15:01:52;;;;;;;19.67;9.43;;;;;;;8.55;57.61;99801.11;3552455;82;98652;-85
2022/02/14 15:06:55;;;;;;;19.60;9.00;;;;;;;8.50;58.42;99799.51;3540275;82;107855;-85
2022/02/14 15:11:58;;;;;;;19.73;10.85;;;;;;;8.43;59.02;99795.91;3538902;82;99112;-83
2022/02/14 15:17:00;;;;;;;20.08;9.80;;;;;;;8.35;58.78;99787.42;3540057;82;98697;-85
2022/02/14 15:22:01;;;;;;;22.05;10.13;;;;;;;8.28;59.69;99792.84;3538836;82;98535;-87
2022/02/14 15:27:03;;;;;;;18.23;9.50;;;;;;;8.21;60.09;99790.81;3535029;82;98607;-90
2022/02/14 15:32:04;;;;;;;17.33;8.97;;;;;;;8.13;60.69;99789.72;3542943;82;98510;-87
2022/02/14 15:37:06;;;;;;;17.15;9.08;;;;;;;8.03;60.97;99795.87;3530691;82;98587;-87
2022/02/14 15:42:07;;;;;;;21.68;9.73;;;;;;;7.94;61.27;99790.69;3541832;82;98896;-86
2022/02/14 15:47:10;;;;;;;17.42;9.95;;;;;;;7.83;61.55;99792.52;3530018;82;98505;-84
2022/02/14 15:52:11;;;;;;;21.75;10.90;;;;;;;7.72;61.95;99796.28;3530285;81;33277;-88
2022/02/14 15:57:12;;;;;;;20.62;11.25;;;;;;;7.61;62.26;99796.16;3525259;82;99049;-86
2022/02/14 16:02:13;;;;;;;23.43;11.37;;;;;;;7.50;62.42;99791.12;3538432;82;99239;-86
2022/02/14 16:07:14;;;;;;;24.27;11.73;;;;;;;7.41;62.87;99793.95;3533999;82;98899;-85
2022/02/14 16:12:15;;;;;;;23.97;12.00;;;;;;;7.30;63.27;99783.43;3530213;82;98698;-85
2022/02/14 16:17:18;;;;;;;25.50;11.57;;;;;;;7.18;62.37;99786.37;3532202;82;98547;-83
2022/02/14 16:22:19;;;;;;;27.37;12.47;;;;;;;7.09;63.32;99794.08;3527320;82;33884;-87
2022/02/14 16:27:20;;;;;;;24.10;13.47;;;;;;;6.98;63.79;99788.42;3524472;82;98993;-85
2022/02/14 16:32:21;;;;;;;28.20;14.37;;;;;;;6.89;63.69;99795.32;3542174;81;98721;-84
2022/02/14 16:37:21;;;;;;;24.47;12.87;;;;;;;6.82;63.86;99794.63;3537595;81;99104;-84
2022/02/14 16:42:25;;;;;;;84.60;41.17;;;;;;;6.72;64.08;99803.45;3541020;82;99028;-84
2022/02/14 16:47:26;;;;;;;86.13;41.63;;;;;;;6.63;64.34;99802.92;3535887;82;98843;-84
2022/02/14 16:52:30;;;;;;;85.07;39.87;;;;;;;6.54;64.16;99805.70;3544430;82;31426;-85
2022/02/14 16:57:31;;;;;;;127.72;56.98;;;;;;;6.46;64.41;99801.25;3531685;82;98507;-86
2022/02/14 17:02:32;;;;;;;52.13;23.37;;;;;;;6.39;64.46;99812.06;3539088;82;98877;-86
2022/02/14 17:07:33;;;;;;;76.70;32.03;;;;;;;6.30;64.54;99804.11;3534389;82;98606;-84
2022/02/14 17:12:35;;;;;;;37.90;17.40;;;;;;;6.25;64.58;99794.84;3543039;82;98750;-85
2022/02/14 17:17:38;;;;;;;71.33;32.35;;;;;;;6.19;64.54;99793.56;3528793;82;98718;-85
2022/02/14 17:22:41;;;;;;;55.88;25.82;;;;;;;6.13;64.83;99799.68;3546847;82;33103;-86
2022/02/14 17:27:43;;;;;;;72.50;29.80;;;;;;;6.06;65.26;99794.09;3575461;81;98917;-86
2022/02/14 17:32:44;;;;;;;50.95;21.05;;;;;;;6.01;65.27;99784.83;3588216;81;98433;-84
2022/02/14 17:37:45;;;;;;;43.93;20.10;;;;;;;5.97;65.14;99792.16;3577364;81;99318;-88
2022/02/14 17:42:46;;;;;;;43.53;20.70;;;;;;;5.92;65.52;99801.44;3580308;81;98763;-86
2022/02/14 17:47:47;;;;;;;31.33;16.03;;;;;;;5.86;65.65;99801.52;3570726;81;98895;-84
2022/02/14 17:52:47;;;;;;;39.53;19.10;;;;;;;5.82;66.19;99795.75;3582829;81;32145;-85
2022/02/14 17:57:48;;;;;;;34.40;16.20;;;;;;;5.75;66.51;99795.03;3577499;80;98539;-86
2022/02/14 18:02:49;;;;;;;29.90;14.30;;;;;;;5.70;66.65;99803.50;3551533;81;99057;-84
2022/02/14 18:07:50;;;;;;;26.23;14.47;;;;;;;5.64;66.89;99796.75;3582707;81;98988;-83
2022/02/14 18:12:58;;;;;;;28.27;14.27;;;;;;;5.60;67.14;99794.52;3572779;80;98662;-84
2022/02/14 18:17:57;;;;;;;30.08;14.10;;;;;;;5.55;67.33;99798.09;3559394;81;99208;-82
2022/02/14 18:22:58;;;;;;;28.50;12.73;;;;;;;5.50;67.42;99802.47;3577467;81;31505;-84
2022/02/14 18:28:00;;;;;;;24.85;13.10;;;;;;;5.44;67.80;99808.00;3575800;81;98706;-82
2022/02/14 18:33:01;;;;;;;30.02;15.20;;;;;;;5.39;68.01;99798.73;3532893;82;97755;-82
2022/02/14 18:38:02;;;;;;;33.37;17.17;;;;;;;5.34;68.25;99803.13;3524849;81;99223;-82
2022/02/14 18:43:04;;;;;;;34.13;16.57;;;;;;;5.26;68.57;99800.81;3540465;82;99238;-83
2022/02/14 18:48:05;;;;;;;37.07;17.47;;;;;;;5.21;68.87;99813.36;3537102;82;98643;-82
2022/02/14 18:53:07;;;;;;;35.83;17.77;;;;;;;5.17;68.86;99807.03;3541496;82;31497;-83
2022/02/14 18:58:08;;;;;;;35.60;17.03;;;;;;;5.13;69.06;99808.88;3534990;82;98873;-83
2022/02/14 19:03:08;;;;;;;32.07;15.50;;;;;;;5.07;69.44;99806.22;3536524;82;98858;-82
2022/02/14 19:08:09;;;;;;;34.13;17.70;;;;;;;5.02;69.57;99805.13;3518423;82;99047;-82
2022/02/14 19:13:11;;;;;;;29.40;16.30;;;;;;;4.98;69.71;99804.84;3554155;82;98989;-83
2022/02/14 19:18:13;;;;;;;44.57;19.63;;;;;;;4.93;70.15;99811.92;3518277;82;99044;-85
2022/02/14 19:23:14;;;;;;;35.87;17.33;;;;;;;4.86;70.41;99801.63;3547828;82;99036;-85
2022/02/14 19:28:18;;;;;;;29.70;16.23;;;;;;;4.82;70.75;99805.42;3525302;82;98694;-82
2022/02/14 19:38:39;;;;;;;41.53;19.65;;;;;;;4.73;71.23;99802.89;3537838;82;99029;-83
2022/02/14 19:43:42;;;;;;;45.45;20.00;;;;;;;4.68;71.45;99803.72;3547313;82;98734;-82
2022/02/14 19:48:45;;;;;;;53.25;25.82;;;;;;;4.63;71.87;99808.09;3540396;82;98725;-83
2022/02/14 19:53:47;;;;;;;40.85;19.82;;;;;;;4.57;72.01;99804.83;3538710;81;99217;-85
2022/02/14 19:58:48;;;;;;;39.42;19.90;;;;;;;4.52;72.24;99804.28;3539221;82;98368;-85
2022/02/14 20:03:49;;;;;;;38.30;19.37;;;;;;;4.48;72.45;99805.56;3533657;82;98767;-84
2022/02/14 20:08:55;;;;;;;40.23;19.30;;;;;;;4.46;72.50;99807.05;3534215;82;98941;-85
2022/02/14 20:13:58;;;;;;;33.35;17.10;;;;;;;4.44;72.29;99807.43;3547471;82;98897;-84
2022/02/14 20:19:01;;;;;;;40.75;19.70;;;;;;;4.45;72.33;99802.75;3546288;82;98957;-85
2022/02/14 20:24:02;;;;;;;44.93;20.37;;;;;;;4.42;72.42;99804.25;3536342;81;98984;-82
2022/02/14 20:29:03;;;;;;;41.97;20.50;;;;;;;4.39;72.59;99804.16;3552558;82;98562;-86
2022/02/14 20:34:05;;;;;;;36.68;19.25;;;;;;;4.34;72.68;99798.97;3554338;82;98652;-85
2022/02/14 20:39:05;;;;;;;39.20;20.33;;;;;;;4.31;72.71;99799.10;3533010;82;98881;-86
2022/02/14 20:44:07;;;;;;;38.00;19.40;;;;;;;4.27;72.73;99806.38;3536864;82;98975;-86
2022/02/14 20:49:10;;;;;;;39.77;20.30;;;;;;;4.23;72.92;99806.08;3527928;82;98602;-85
2022/02/14 20:54:10;;;;;;;35.33;19.60;;;;;;;4.18;73.08;99815.31;3530219;82;98906;-86
2022/02/14 20:59:12;;;;;;;50.23;24.77;;;;;;;4.13;73.42;99812.84;3531818;82;98868;-86
2022/02/14 21:04:13;;;;;;;48.47;22.33;;;;;;;4.07;73.59;99814.80;3540565;82;99031;-86
2022/02/14 21:09:14;;;;;;;51.63;23.33;;;;;;;4.00;73.98;99812.69;3533933;82;98625;-87
2022/02/14 21:14:14;;;;;;;48.17;23.40;;;;;;;3.92;74.33;99798.65;3536777;82;98799;-88
2022/02/14 21:19:15;;;;;;;50.53;25.63;;;;;;;3.85;74.47;99798.47;3534081;82;98826;-88
2022/02/14 21:24:16;;;;;;;44.40;22.20;;;;;;;3.77;74.90;99800.75;3549953;82;98612;-90
2022/02/14 21:29:17;;;;;;;44.20;21.90;;;;;;;3.71;75.24;99796.70;3528701;82;98733;-89
2022/02/14 21:34:20;;;;;;;43.60;22.48;;;;;;;3.65;75.17;99808.20;3562581;82;29836;-90
2022/02/14 21:39:21;;;;;;;47.93;23.87;;;;;;;3.58;75.42;99809.34;3544848;82;99041;-90
2022/02/14 21:44:22;;;;;;;42.73;22.43;;;;;;;3.51;75.75;99802.34;3534644;82;98756;-90
2022/02/14 21:49:23;;;;;;;40.57;21.10;;;;;;;3.47;76.00;99809.60;3534571;82;98715;-90
2022/02/14 21:54:25;;;;;;;40.20;21.03;;;;;;;3.42;76.19;99801.68;3557759;82;98708;-90
2022/02/14 21:59:26;;;;;;;38.43;19.67;;;;;;;3.39;76.13;99801.02;3548272;82;98739;-88
2022/02/14 22:09:55;;;;;;;54.67;25.27;;;;;;;3.30;76.69;99799.80;3540723;82;98723;-84
2022/02/14 22:14:56;;;;;;;57.50;27.30;;;;;;;3.29;76.70;99804.22;3549785;82;98433;-84
2022/02/14 22:19:57;;;;;;;40.97;21.83;;;;;;;3.25;76.68;99807.39;3536771;82;98611;-85
2022/02/14 22:24:57;;;;;;;45.30;22.07;;;;;;;3.22;77.38;99813.53;3541579;82;99004;-84
2022/02/14 22:29:58;;;;;;;45.10;21.87;;;;;;;3.21;77.13;99814.64;3532202;82;99156;-85
2022/02/14 22:34:59;;;;;;;47.70;23.60;;;;;;;3.18;77.41;99810.68;3541680;82;31498;-84
2022/02/14 22:40:00;;;;;;;44.30;21.60;;;;;;;3.15;77.95;99807.86;3536663;82;98713;-83
2022/02/14 22:45:02;;;;;;;47.67;24.23;;;;;;;3.13;77.80;99811.50;3539684;82;98541;-83
2022/02/14 22:50:08;;;;;;;47.70;23.47;;;;;;;3.12;77.72;99814.00;3530885;82;99064;-84
2022/02/14 22:55:09;;;;;;;42.93;23.57;;;;;;;3.10;77.87;99810.81;3546041;82;99302;-82
2022/02/14 23:00:35;;;;;;;38.67;21.63;;;;;;;3.09;78.17;99803.80;3531965;82;99377;-85
2022/02/14 23:05:36;;;;;;;47.10;22.48;;;;;;;3.07;78.25;99802.77;3537205;82;99084;-84
2022/02/14 23:15:57;;;;;;;38.48;19.73;;;;;;;3.07;78.47;99806.08;3545655;82;98647;-83
2022/02/14 23:20:59;;;;;;;42.23;20.07;;;;;;;3.07;78.51;99803.36;3532571;82;99250;-84
2022/02/14 23:26:00;;;;;;;40.52;20.80;;;;;;;3.09;78.65;99800.52;3542537;82;98975;-84
2022/02/14 23:31:01;;;;;;;41.27;19.53;;;;;;;3.07;78.76;99797.33;3537879;82;98796;-84
2022/02/14 23:36:04;;;;;;;44.47;20.80;;;;;;;3.08;78.79;99789.43;3539669;82;98635;-84
2022/02/14 23:41:05;;;;;;;42.58;21.70;;;;;;;3.09;78.74;99788.29;3533425;82;98227;-83
2022/02/14 23:46:07;;;;;;;42.90;20.67;;;;;;;3.08;78.94;99777.75;3540896;82;98559;-83
2022/02/14 23:51:08;;;;;;;46.00;21.53;;;;;;;3.07;78.85;99776.95;3535755;82;99047;-84
2022/02/14 23:56:08;;;;;;;39.43;19.50;;;;;;;3.08;78.92;99786.71;3550340;82;99010;-83
